Time;durP1;ratioP1;P1;durP2;ratioP2;P2;SDS_P1;SDS_P2;PMS_P1;PMS_P2;Temp;Humidity;BMP_temperature;BMP_pressure;BME280_temperature;BME280_humidity;BME280_pressure;Samples;Min_cycle;Max_cycle;Signal;HPM_P1;HPM_P2
2021/08/01 05:50:32;;;;;;;5.13;4.73;;;15.00;99.90;;;;;;6145145;23;20419;-89
2021/08/01 05:53:01;;;;;;;5.00;4.60;;;15.00;99.90;;;;;;6142614;23;20393;-89
2021/08/01 05:56:25;;;;;;;4.90;4.50;;;15.00;99.90;;;;;;6143406;23;20400;-89
2021/08/01 05:59:18;;;;;;;4.17;3.87;;;15.10;99.90;;;;;;6127556;23;20424;-88
2021/08/01 06:06:09;;;;;;;4.90;4.50;;;15.20;99.90;;;;;;6125447;23;20697;-90
2021/08/01 06:09:43;;;;;;;5.73;5.10;;;15.20;99.90;;;;;;6140948;23;20800;-91
2021/08/01 06:15:59;;;;;;;6.67;6.10;;;15.30;99.90;;;;;;6085622;23;20390;-90
2021/08/01 07:47:42;;;;;;;7.00;6.33;;;16.00;99.90;;;;;;6268729;22;20456;-90
2021/08/01 07:51:00;;;;;;;6.57;5.97;;;16.00;99.90;;;;;;6241277;22;20401;-92
2021/08/01 07:53:52;;;;;;;8.93;6.43;;;16.10;99.90;;;;;;6240654;22;20404;-93
2021/08/01 08:09:16;;;;;;;7.60;6.80;;;16.10;99.90;;;;;;6259883;22;20451;-91
2021/08/01 08:11:48;;;;;;;9.00;6.87;;;16.20;99.90;;;;;;6216547;22;20393;-93
2021/08/01 08:14:17;;;;;;;7.37;6.77;;;16.40;99.90;;;;;;6243142;22;20914;-88
2021/08/01 08:16:43;;;;;;;5.90;5.40;;;16.40;99.90;;;;;;6245816;22;20444;-91
2021/08/01 08:19:28;;;;;;;7.57;6.87;;;16.40;99.90;;;;;;6241652;22;20393;-90
2021/08/01 08:21:57;;;;;;;7.50;6.80;;;16.30;99.90;;;;;;6239234;22;20166;-89
2021/08/01 08:25:02;;;;;;;6.27;5.70;;;16.40;99.90;;;;;;6243359;22;20405;-88
2021/08/01 08:30:22;;;;;;;8.40;6.67;;;16.20;99.90;;;;;;6268034;22;20442;-88
2021/08/01 08:36:42;;;;;;;7.70;7.00;;;16.10;99.90;;;;;;6262460;22;20215;-88
2021/08/01 08:39:33;;;;;;;7.40;6.77;;;16.20;99.90;;;;;;6238419;22;20400;-85
2021/08/01 08:42:02;;;;;;;7.93;7.33;;;16.20;99.90;;;;;;6227077;22;20393;-84
2021/08/01 08:44:35;;;;;;;8.50;7.70;;;16.20;99.90;;;;;;6240117;22;20406;-89
2021/08/01 08:47:03;;;;;;;8.43;7.73;;;16.10;99.90;;;;;;6236705;22;20507;-86
2021/08/01 08:49:31;;;;;;;8.40;7.50;;;16.20;99.90;;;;;;6265553;22;20424;-82
2021/08/01 08:51:58;;;;;;;10.60;7.67;;;16.30;99.90;;;;;;6235534;22;20604;-83
2021/08/01 08:54:38;;;;;;;8.67;7.43;;;16.30;99.90;;;;;;6239345;22;20566;-85
2021/08/01 08:57:21;;;;;;;7.90;7.00;;;16.20;99.90;;;;;;6240113;22;20720;-82
2021/08/01 09:00:08;;;;;;;8.70;7.77;;;16.20;99.90;;;;;;6238657;22;20730;-81
2021/08/01 09:02:34;;;;;;;11.33;8.53;;;16.10;99.90;;;;;;6264466;22;20759;-81
2021/08/01 09:05:01;;;;;;;8.10;7.40;;;16.10;99.90;;;;;;6236626;22;20388;-83
2021/08/01 09:07:26;;;;;;;8.77;7.97;;;16.10;99.90;;;;;;6235435;22;20440;-83
2021/08/01 09:09:53;;;;;;;9.87;8.20;;;16.10;99.90;;;;;;6236781;22;20412;-83
2021/08/01 09:12:20;;;;;;;8.87;8.00;;;16.10;99.90;;;;;;6236997;22;20170;-83
2021/08/01 09:14:46;;;;;;;8.33;7.63;;;16.20;99.90;;;;;;6236714;22;20512;-82
2021/08/01 09:17:12;;;;;;;10.67;7.73;;;16.20;99.90;;;;;;6237068;22;20555;-83
2021/08/01 09:19:43;;;;;;;8.90;7.97;;;16.10;99.90;;;;;;6236228;22;20603;-83
2021/08/01 09:22:14;;;;;;;9.00;8.20;;;16.10;99.90;;;;;;6236909;22;20407;-83
2021/08/01 09:24:41;;;;;;;8.80;8.00;;;16.10;99.90;;;;;;6238030;22;20397;-82
2021/08/01 09:27:08;;;;;;;8.03;7.33;;;16.10;99.90;;;;;;6265957;22;20428;-80
2021/08/01 09:29:48;;;;;;;9.30;7.93;;;16.10;99.90;;;;;;6237625;22;20405;-81
2021/08/01 09:32:14;;;;;;;8.07;7.27;;;15.90;99.90;;;;;;6262118;22;20514;-83
2021/08/01 09:34:48;;;;;;;7.67;7.00;;;15.90;99.90;;;;;;6237286;22;20438;-82
2021/08/01 10:04:37;;;;;;;7.10;6.53;;;17.00;99.90;;;;;;6263071;22;20440;-89
2021/08/01 10:11:32;;;;;;;7.47;6.87;;;17.20;99.90;;;;;;6267729;22;20802;-89
2021/08/01 11:20:01;;;;;;;4.83;4.43;;;18.60;99.90;;;;;;6241527;22;20436;-87
2021/08/01 11:22:40;;;;;;;4.10;3.80;;;18.90;99.90;;;;;;6264648;22;20392;-87
2021/08/01 11:26:12;;;;;;;4.67;3.60;;;19.00;99.90;;;;;;6232344;22;20788;-87
2021/08/01 11:32:09;;;;;;;4.53;4.13;;;18.80;99.90;;;;;;6140574;23;20411;-84
2021/08/01 11:35:24;;;;;;;6.37;3.93;;;19.30;99.90;;;;;;6233708;22;20397;-86
2021/08/01 11:38:07;;;;;;;4.80;3.20;;;19.80;99.90;;;;;;6235274;22;20723;-85
2021/08/01 11:40:43;;;;;;;4.23;3.83;;;19.90;99.90;;;;;;6237981;22;20393;-88
2021/08/01 11:43:10;;;;;;;5.03;3.97;;;20.30;99.90;;;;;;6239834;22;20739;-86
2021/08/01 11:46:06;;;;;;;4.43;4.03;;;20.40;99.90;;;;;;6240137;22;20702;-85
2021/08/01 11:48:34;;;;;;;5.00;4.60;;;21.00;99.90;;;;;;6237701;22;20444;-86
2021/08/01 11:51:11;;;;;;;4.37;4.00;;;20.90;99.90;;;;;;6239323;22;20394;-86
2021/08/01 11:53:39;;;;;;;4.73;4.13;;;21.10;99.90;;;;;;6264929;22;20380;-86
2021/08/01 11:56:08;;;;;;;4.40;4.10;;;21.20;99.90;;;;;;6240717;22;20389;-85
2021/08/01 11:58:35;;;;;;;4.43;4.03;;;21.10;99.90;;;;;;6239706;22;20446;-85
2021/08/01 12:01:01;;;;;;;4.70;4.40;;;21.00;99.90;;;;;;6241542;22;20393;-87
2021/08/01 12:03:28;;;;;;;4.90;4.50;;;20.50;99.90;;;;;;6239983;22;20412;-86
2021/08/01 12:05:54;;;;;;;5.53;4.83;;;20.00;99.90;;;;;;6240109;22;20404;-85
2021/08/01 12:08:40;;;;;;;5.47;4.93;;;20.10;99.90;;;;;;6238743;22;20440;-83
2021/08/01 12:11:17;;;;;;;5.40;5.00;;;19.70;99.90;;;;;;6238144;22;20165;-85
2021/08/01 12:14:09;;;;;;;6.00;5.40;;;19.80;99.90;;;;;;6238561;22;20434;-86
2021/08/01 12:16:58;;;;;;;5.60;5.13;;;19.30;99.90;;;;;;6240035;22;20877;-86
2021/08/01 12:19:59;;;;;;;7.20;5.00;;;19.30;99.90;;;;;;6240021;22;20845;-85
2021/08/01 12:22:54;;;;;;;5.63;5.20;;;19.50;99.90;;;;;;6160255;22;20416;-85
2021/08/01 12:25:30;;;;;;;5.13;4.70;;;20.00;99.90;;;;;;6239402;22;20400;-86
2021/08/01 12:28:37;;;;;;;4.53;4.23;;;20.30;99.90;;;;;;6241003;22;20451;-86
2021/08/01 12:31:06;;;;;;;9.53;4.87;;;20.50;99.90;;;;;;6233978;22;20904;-87
2021/08/01 12:33:32;;;;;;;4.93;4.53;;;20.60;99.90;;;;;;6241214;22;20434;-86
2021/08/01 12:36:29;;;;;;;4.80;4.50;;;20.60;99.90;;;;;;6192344;22;20421;-86
2021/08/01 12:46:19;;;;;;;4.30;4.00;;;21.70;99.90;;;;;;6268383;22;20438;-86
2021/08/01 12:48:53;;;;;;;4.37;4.07;;;21.30;99.90;;;;;;6265471;22;20397;-87
2021/08/01 12:51:25;;;;;;;5.83;4.00;;;20.80;99.90;;;;;;6239408;22;20388;-85
2021/08/01 12:53:59;;;;;;;4.90;4.20;;;20.60;99.90;;;;;;6235955;22;20401;-87
2021/08/01 13:04:48;;;;;;;4.80;4.40;;;20.90;99.90;;;;;;6267012;22;20428;-86
2021/08/01 13:07:14;;;;;;;3.20;3.00;;;20.60;99.90;;;;;;6237362;22;20424;-86
2021/08/01 13:09:59;;;;;;;3.87;3.57;;;19.80;99.90;;;;;;6238351;22;21046;-87
2021/08/01 13:12:27;;;;;;;6.70;4.63;;;19.40;99.90;;;;;;6239207;22;20178;-86
2021/08/01 13:14:55;;;;;;;5.73;5.23;;;19.40;99.90;;;;;;6238423;22;20396;-87
2021/08/01 13:17:42;;;;;;;4.90;4.50;;;19.10;99.90;;;;;;6239330;22;20477;-86
2021/08/01 13:20:11;;;;;;;5.40;5.00;;;19.00;99.90;;;;;;6265850;22;20484;-85
2021/08/01 13:22:37;;;;;;;5.63;5.03;;;19.10;99.90;;;;;;6240237;22;20412;-86
2021/08/01 13:25:36;;;;;;;5.83;4.90;;;19.50;99.90;;;;;;6239677;22;20838;-86
2021/08/01 13:28:03;;;;;;;5.10;4.60;;;19.50;99.90;;;;;;6183652;22;20489;-84
2021/08/01 13:31:02;;;;;;;6.23;5.63;;;19.50;99.90;;;;;;6236784;22;20422;-88
2021/08/01 13:33:28;;;;;;;4.73;4.33;;;19.60;99.90;;;;;;6239077;22;20515;-86
2021/08/01 13:36:10;;;;;;;4.90;4.50;;;19.70;99.90;;;;;;6241195;22;20427;-87
2021/08/01 13:41:22;;;;;;;5.07;4.67;;;19.50;99.90;;;;;;6268789;22;20456;-86
2021/08/01 13:47:41;;;;;;;4.03;3.73;;;20.30;99.90;;;;;;6121877;22;20802;-87
2021/08/01 13:50:17;;;;;;;3.40;3.13;;;20.60;99.90;;;;;;6236787;22;20393;-87
2021/08/01 13:53:04;;;;;;;;;;;;;;;;;;;;;
2021/08/01 13:55:32;;;;;;;3.23;3.00;;;27.80;98.50;;;;;;6266902;22;20499;-86
2021/08/01 13:58:08;;;;;;;2.80;2.60;;;29.50;89.60;;;;;;6239273;22;20389;-87
2021/08/01 14:01:16;;;;;;;3.10;2.90;;;28.90;87.50;;;;;;6236929;22;20435;-89
2021/08/01 14:11:30;;;;;;;3.40;3.10;;;22.60;97.50;;;;;;6143570;23;20390;-88
2021/08/01 14:17:10;;;;;;;3.70;3.40;;;22.00;98.00;;;;;;6269726;22;20388;-87
2021/08/01 14:20:22;;;;;;;4.30;4.00;;;21.30;99.90;;;;;;6273710;22;20447;-87
2021/08/01 14:22:55;;;;;;;3.73;3.43;;;20.70;99.90;;;;;;6271256;22;20727;-87
2021/08/01 14:25:29;;;;;;;4.60;4.30;;;20.20;99.90;;;;;;6298494;22;20395;-86
2021/08/01 14:27:59;;;;;;;5.03;4.67;;;19.80;99.90;;;;;;6272624;22;20497;-86
2021/08/01 14:30:26;;;;;;;4.97;4.47;;;19.30;99.90;;;;;;6296927;22;20422;-86
2021/08/01 14:33:01;;;;;;;5.50;5.00;;;19.10;99.90;;;;;;6297805;22;20386;-85
2021/08/01 14:39:06;;;;;;;5.07;4.67;;;18.70;99.90;;;;;;6295963;22;20399;-86
2021/08/01 14:41:49;;;;;;;4.80;4.50;;;18.50;99.90;;;;;;6269740;22;20434;-87
2021/08/01 14:44:56;;;;;;;6.10;5.50;;;18.20;99.90;;;;;;6266054;22;20747;-87
2021/08/01 14:47:36;;;;;;;7.90;5.90;;;18.00;99.90;;;;;;6253028;22;20468;-86
2021/08/01 14:50:28;;;;;;;5.10;4.70;;;18.00;99.90;;;;;;6270438;22;20392;-87
2021/08/01 14:53:02;;;;;;;5.50;4.93;;;17.90;99.90;;;;;;6297455;22;20458;-86
2021/08/01 14:55:32;;;;;;;4.50;4.20;;;17.70;99.90;;;;;;6295668;22;20387;-87
2021/08/01 14:58:21;;;;;;;4.27;3.87;;;17.60;99.90;;;;;;6268105;22;20388;-87
2021/08/01 15:00:51;;;;;;;5.13;4.27;;;17.50;99.90;;;;;;6269506;22;20396;-87
2021/08/01 15:03:24;;;;;;;4.87;4.37;;;16.80;99.90;;;;;;6270267;22;20420;-88
2021/08/01 15:06:01;;;;;;;4.93;4.53;;;16.40;99.90;;;;;;6270560;22;20490;-87
2021/08/01 15:08:39;;;;;;;5.00;4.57;;;16.10;99.90;;;;;;6270752;22;20491;-87
2021/08/01 15:11:21;;;;;;;6.47;5.50;;;15.90;99.90;;;;;;6294523;22;20396;-87
2021/08/01 15:13:59;;;;;;;4.70;4.40;;;15.80;99.90;;;;;;6270665;22;20396;-87
2021/08/01 15:16:28;;;;;;;5.67;5.17;;;15.70;99.90;;;;;;6269454;22;20716;-88
2021/08/01 15:19:04;;;;;;;6.10;5.47;;;15.70;99.90;;;;;;6270090;22;20890;-87
2021/08/01 15:21:40;;;;;;;5.13;4.63;;;15.60;99.90;;;;;;6268350;22;20432;-87
2021/08/01 15:24:15;;;;;;;6.87;4.23;;;15.70;99.90;;;;;;6270480;22;20460;-87
2021/08/01 15:26:43;;;;;;;5.03;4.63;;;15.60;99.90;;;;;;6270234;22;20391;-86
2021/08/01 15:29:09;;;;;;;5.10;4.60;;;15.60;99.90;;;;;;6271813;22;20399;-86
2021/08/01 15:31:37;;;;;;;4.00;3.67;;;15.60;99.90;;;;;;6295459;22;20400;-87
2021/08/01 15:34:03;;;;;;;3.70;3.40;;;15.60;99.90;;;;;;6269163;22;20436;-86
2021/08/01 15:36:33;;;;;;;3.63;3.23;;;15.60;99.90;;;;;;6296220;22;20426;-86
2021/08/01 15:38:59;;;;;;;4.20;3.57;;;15.60;99.90;;;;;;6270585;22;20400;-86
2021/08/01 15:41:24;;;;;;;4.13;3.67;;;15.50;99.90;;;;;;6270366;22;20401;-86
2021/08/01 15:43:56;;;;;;;3.23;2.93;;;15.50;99.90;;;;;;6296157;22;20698;-86
2021/08/01 15:46:27;;;;;;;4.10;2.70;;;15.40;99.90;;;;;;6271638;22;20170;-87
2021/08/01 15:48:53;;;;;;;3.40;3.20;;;15.40;99.90;;;;;;6261913;22;20812;-86
2021/08/01 15:51:27;;;;;;;3.20;3.00;;;15.30;99.90;;;;;;6295409;22;20471;-85
2021/08/01 15:53:54;;;;;;;3.13;2.83;;;15.20;99.90;;;;;;6269146;22;20492;-86
2021/08/01 15:56:22;;;;;;;3.50;2.60;;;15.10;99.90;;;;;;6270378;22;20403;-86
2021/08/01 15:59:12;;;;;;;2.60;2.40;;;15.00;99.90;;;;;;6269752;22;20510;-86
2021/08/01 16:02:08;;;;;;;4.30;2.93;;;15.00;99.90;;;;;;6269342;22;20847;-86
2021/08/01 16:04:56;;;;;;;3.30;3.00;;;15.00;99.90;;;;;;6267152;22;20509;-87
2021/08/01 16:07:31;;;;;;;2.97;2.77;;;15.00;99.90;;;;;;6268808;22;20519;-86
2021/08/01 16:10:04;;;;;;;3.13;2.93;;;15.00;99.90;;;;;;6269100;22;20391;-85
2021/08/01 16:12:41;;;;;;;3.70;2.73;;;15.00;99.90;;;;;;6271444;22;20784;-85
2021/08/01 16:15:08;;;;;;;2.93;2.60;;;15.20;99.90;;;;;;6269280;22;20391;-85
2021/08/01 16:17:41;;;;;;;3.13;2.93;;;15.30;99.90;;;;;;6269189;22;20403;-87
2021/08/01 16:20:15;;;;;;;3.53;3.23;;;15.40;99.90;;;;;;6268224;22;20713;-86
2021/08/01 16:22:44;;;;;;;2.40;2.20;;;15.50;99.90;;;;;;6266505;22;20470;-86
2021/08/01 16:25:15;;;;;;;2.20;2.10;;;15.50;99.90;;;;;;6269355;22;20396;-86
2021/08/01 16:27:47;;;;;;;6.70;2.90;;;15.70;99.90;;;;;;6269865;22;20444;-85
2021/08/01 16:30:24;;;;;;;2.70;2.50;;;15.70;99.90;;;;;;6293124;22;20525;-87
2021/08/01 16:35:50;;;;;;;2.27;2.17;;;15.60;99.90;;;;;;6298095;22;20733;-88
2021/08/01 16:41:47;;;;;;;3.73;2.50;;;15.80;99.90;;;;;;6197981;23;20776;-87
2021/08/01 16:45:26;;;;;;;2.63;2.40;;;15.90;99.90;;;;;;6263810;22;20392;-87
2021/08/01 16:48:34;;;;;;;2.30;1.93;;;15.70;99.90;;;;;;6149152;23;20474;-87
2021/08/01 16:51:25;;;;;;;3.30;2.40;;;15.30;99.90;;;;;;6148393;23;20403;-88
2021/08/01 16:55:02;;;;;;;;;;;;;;;;;;;;;
2021/08/01 17:01:43;;;;;;;2.63;2.43;;;15.60;99.90;;;;;;6236742;23;20386;-88
2021/08/01 17:08:18;;;;;;;;;;;;;;;;;;;;;
2021/08/01 17:11:35;;;;;;;;;;;;;;;;;;;;;
2021/08/01 17:14:05;;;;;;;2.10;1.90;;;15.30;99.90;;;;;;6298839;22;20475;-89
2021/08/01 17:16:38;;;;;;;2.67;2.47;;;15.40;99.90;;;;;;6295784;22;20388;-88
2021/08/01 17:24:58;;;;;;;2.13;2.03;;;15.60;99.90;;;;;;6296768;22;20450;-88
2021/08/01 17:34:02;;;;;;;2.60;2.40;;;15.70;99.90;;;;;;6266811;22;20406;-87
2021/08/01 17:40:38;;;;;;;2.63;2.33;;;17.80;99.90;;;;;;6054363;23;20395;-88
2021/08/01 17:43:44;;;;;;;1.90;1.80;;;16.90;99.90;;;;;;6072131;23;20471;-87
2021/08/01 17:46:38;;;;;;;1.80;1.70;;;16.70;99.90;;;;;;6270759;22;20917;-88
2021/08/01 17:49:33;;;;;;;2.10;1.90;;;16.70;99.90;;;;;;6297375;22;20509;-87
2021/08/01 17:54:58;;;;;;;3.83;2.13;;;17.10;99.90;;;;;;6296276;22;21060;-88
2021/08/01 19:11:18;;;;;;;2.97;2.73;;;15.30;99.90;;;;;;6257806;22;20456;-85
2021/08/01 19:13:44;;;;;;;2.93;2.73;;;15.30;99.90;;;;;;6240206;22;20409;-86
2021/08/01 19:16:26;;;;;;;2.87;2.60;;;15.20;99.90;;;;;;6267954;22;20408;-86
2021/08/01 19:19:04;;;;;;;2.90;2.70;;;15.20;99.90;;;;;;6215321;22;20400;-86
2021/08/01 19:21:59;;;;;;;3.00;2.80;;;15.10;99.90;;;;;;6239419;22;20898;-86
2021/08/01 19:24:55;;;;;;;2.90;2.60;;;15.10;99.90;;;;;;6237796;22;20435;-86
2021/08/01 19:27:26;;;;;;;3.03;2.77;;;15.10;99.90;;;;;;6245232;22;20489;-86
2021/08/01 19:29:58;;;;;;;3.97;3.67;;;15.00;99.90;;;;;;6236370;22;20389;-87
2021/08/01 19:32:29;;;;;;;3.03;2.80;;;15.00;99.90;;;;;;6239969;22;20413;-85
2021/08/01 19:34:56;;;;;;;3.93;3.03;;;15.10;99.90;;;;;;6239260;22;20389;-86
2021/08/01 19:37:23;;;;;;;3.93;3.10;;;15.00;99.90;;;;;;6266376;22;20470;-86
2021/08/01 19:39:50;;;;;;;5.77;3.20;;;15.00;99.90;;;;;;6237748;22;20389;-85
2021/08/01 19:42:20;;;;;;;4.10;2.90;;;15.00;99.90;;;;;;6237974;22;20450;-86
2021/08/01 19:44:50;;;;;;;2.83;2.63;;;14.90;99.90;;;;;;6238246;22;20883;-86
2021/08/01 19:47:23;;;;;;;2.80;2.60;;;14.90;99.90;;;;;;6237521;22;20441;-88
2021/08/01 19:49:50;;;;;;;3.30;3.00;;;14.90;99.90;;;;;;6263967;22;20397;-85
2021/08/01 19:52:16;;;;;;;3.40;3.10;;;14.90;99.90;;;;;;6239411;22;20393;-85
2021/08/01 19:54:52;;;;;;;3.97;2.93;;;14.80;99.90;;;;;;6237971;22;20442;-85
2021/08/01 19:57:18;;;;;;;3.47;3.17;;;14.80;99.90;;;;;;6239513;22;20388;-84
2021/08/01 19:59:47;;;;;;;3.33;3.03;;;14.90;99.90;;;;;;6238734;22;20703;-85
2021/08/01 20:02:14;;;;;;;3.50;3.20;;;14.90;99.90;;;;;;6239219;22;20259;-87
2021/08/01 20:04:40;;;;;;;4.00;3.60;;;14.80;99.90;;;;;;6238372;22;20401;-86
2021/08/01 20:07:06;;;;;;;5.63;2.87;;;14.80;99.90;;;;;;6240728;22;20743;-87
2021/08/01 20:09:35;;;;;;;4.53;3.47;;;14.70;99.90;;;;;;6240407;22;20991;-89
2021/08/01 20:12:01;;;;;;;3.73;3.43;;;14.70;99.90;;;;;;6266824;22;20482;-86
2021/08/01 20:14:27;;;;;;;3.40;3.10;;;14.60;99.90;;;;;;6244552;22;20878;-87
2021/08/01 20:16:53;;;;;;;4.90;3.53;;;14.70;99.90;;;;;;6240852;22;20165;-87
2021/08/01 20:19:19;;;;;;;5.97;3.60;;;14.70;99.90;;;;;;6238762;22;20494;-85
2021/08/01 20:21:50;;;;;;;4.13;3.50;;;14.70;99.90;;;;;;6240329;22;20154;-85
2021/08/01 20:24:36;;;;;;;4.70;3.60;;;14.70;99.90;;;;;;6241223;22;20169;-84
2021/08/01 20:27:43;;;;;;;5.37;4.03;;;14.70;99.90;;;;;;6237816;22;20424;-85
2021/08/01 20:30:14;;;;;;;5.00;3.77;;;14.80;99.90;;;;;;6201931;22;20407;-85
2021/08/01 20:33:02;;;;;;;3.83;3.30;;;14.80;99.90;;;;;;6263731;22;20393;-86
2021/08/01 20:35:34;;;;;;;4.53;3.80;;;14.70;99.90;;;;;;6222611;22;20389;-84
2021/08/01 20:38:00;;;;;;;4.80;4.20;;;14.70;99.90;;;;;;6238004;22;20828;-84
2021/08/01 20:40:33;;;;;;;6.23;3.60;;;14.70;99.90;;;;;;6214843;22;20389;-85
2021/08/01 20:43:04;;;;;;;3.60;3.20;;;14.70;99.90;;;;;;6263574;22;20385;-85
2021/08/01 20:45:42;;;;;;;4.13;3.57;;;14.60;99.90;;;;;;6236875;22;20394;-84
2021/08/01 20:48:12;;;;;;;6.87;3.70;;;14.70;99.90;;;;;;6266199;22;20436;-84
2021/08/01 20:50:42;;;;;;;7.23;3.67;;;14.70;99.90;;;;;;6265499;22;20435;-85
2021/08/01 20:53:08;;;;;;;4.40;4.00;;;14.60;99.90;;;;;;6264210;22;20388;-84
2021/08/01 20:55:34;;;;;;;9.90;4.13;;;14.70;99.90;;;;;;6264893;22;20823;-85
2021/08/01 20:58:00;;;;;;;3.83;3.53;;;14.70;99.90;;;;;;6263223;22;20150;-84
2021/08/01 21:00:29;;;;;;;3.97;3.57;;;14.70;99.90;;;;;;6230470;22;20484;-84
2021/08/01 21:22:00;;;;;;;6.60;3.90;;;14.60;99.90;;;;;;6265329;22;20438;-84
2021/08/01 21:24:33;;;;;;;3.93;3.43;;;14.60;99.90;;;;;;6238211;22;20404;-85
2021/08/01 21:27:07;;;;;;;4.10;3.80;;;14.60;99.90;;;;;;6264512;22;20460;-85
2021/08/01 21:29:33;;;;;;;4.10;3.70;;;14.60;99.90;;;;;;6236644;22;20409;-86
2021/08/01 21:32:17;;;;;;;4.50;4.10;;;14.50;99.90;;;;;;6237422;22;20393;-86
2021/08/01 21:34:45;;;;;;;4.37;3.97;;;14.60;99.90;;;;;;6239011;22;20409;-86
2021/08/01 21:37:16;;;;;;;5.27;3.70;;;14.60;99.90;;;;;;6236482;22;20407;-86
2021/08/01 21:39:55;;;;;;;4.50;3.37;;;14.60;99.90;;;;;;6238443;22;20452;-86
2021/08/01 21:42:34;;;;;;;4.00;3.57;;;14.60;99.90;;;;;;6238105;22;20401;-84
2021/08/01 21:45:04;;;;;;;5.63;4.10;;;14.60;99.90;;;;;;6236823;22;20403;-86
2021/08/01 21:47:33;;;;;;;6.83;3.90;;;14.60;99.90;;;;;;6266091;22;20425;-85
2021/08/01 21:49:59;;;;;;;3.97;3.67;;;14.60;99.90;;;;;;6266387;22;20450;-86
2021/08/01 21:52:27;;;;;;;4.10;3.67;;;14.60;99.90;;;;;;6265635;22;20380;-87
2021/08/01 21:54:55;;;;;;;3.57;3.27;;;14.60;99.90;;;;;;6239287;22;20158;-88
2021/08/01 21:57:22;;;;;;;4.10;3.80;;;14.70;99.90;;;;;;6239859;22;20756;-87
2021/08/01 22:00:03;;;;;;;4.13;3.67;;;14.70;99.90;;;;;;6236679;22;20546;-86
2021/08/01 22:02:39;;;;;;;4.20;3.80;;;14.70;99.90;;;;;;6263044;22;20384;-86
2021/08/01 22:05:23;;;;;;;5.03;3.57;;;14.70;99.90;;;;;;6238208;22;20404;-86
2021/08/01 22:07:50;;;;;;;10.10;4.30;;;14.70;99.90;;;;;;6239157;22;20437;-86
2021/08/01 22:10:16;;;;;;;4.47;4.07;;;14.70;99.90;;;;;;6266948;22;20768;-86
2021/08/01 22:12:42;;;;;;;5.67;4.00;;;14.70;99.90;;;;;;6265188;22;20389;-86
2021/08/01 22:15:11;;;;;;;7.17;4.03;;;14.60;99.90;;;;;;6238910;22;20446;-86
2021/08/01 22:17:36;;;;;;;4.40;3.50;;;14.60;99.90;;;;;;6239025;22;21232;-87
2021/08/01 22:20:04;;;;;;;6.73;3.93;;;14.50;99.90;;;;;;6265282;22;20400;-87
2021/08/01 22:22:30;;;;;;;5.50;3.80;;;14.50;99.90;;;;;;6239208;22;20186;-87
2021/08/01 22:24:56;;;;;;;6.13;4.27;;;14.40;99.90;;;;;;6266843;22;20402;-87
2021/08/01 22:27:23;;;;;;;5.47;4.30;;;14.40;99.90;;;;;;6239295;22;20331;-87
2021/08/01 22:29:58;;;;;;;7.43;4.30;;;14.40;99.90;;;;;;6238140;22;20390;-86
2021/08/01 22:32:28;;;;;;;6.30;4.07;;;14.40;99.90;;;;;;6238839;22;20472;-87
2021/08/01 22:34:55;;;;;;;6.20;3.73;;;14.40;99.90;;;;;;6241030;22;20447;-87
2021/08/01 22:37:39;;;;;;;4.90;3.80;;;14.30;99.90;;;;;;6238146;22;20698;-86
2021/08/01 22:40:15;;;;;;;7.27;4.23;;;14.30;99.90;;;;;;6239369;22;20727;-86
2021/08/01 22:42:49;;;;;;;5.17;4.00;;;14.30;99.90;;;;;;6239013;22;20403;-86
2021/08/01 22:45:14;;;;;;;5.33;4.27;;;14.40;99.90;;;;;;6239854;22;20440;-86
2021/08/01 22:47:43;;;;;;;5.80;3.60;;;14.40;99.90;;;;;;6267625;22;20454;-86
2021/08/01 22:50:15;;;;;;;5.10;4.20;;;14.40;99.90;;;;;;6239694;22;20162;-86
2021/08/01 22:52:44;;;;;;;4.90;4.27;;;14.40;99.90;;;;;;6240863;22;20422;-86
2021/08/01 22:55:19;;;;;;;7.97;4.27;;;14.30;99.90;;;;;;6239475;22;20408;-87
2021/08/01 22:57:45;;;;;;;7.13;4.40;;;14.20;99.90;;;;;;6268419;22;20407;-86
2021/08/01 23:00:12;;;;;;;4.17;3.87;;;14.20;99.90;;;;;;6268903;22;20390;-86
2021/08/01 23:02:47;;;;;;;6.30;3.60;;;14.10;99.90;;;;;;6241798;22;20186;-86
2021/08/01 23:05:35;;;;;;;3.90;3.60;;;14.20;99.90;;;;;;6268182;22;20416;-86
2021/08/01 23:08:19;;;;;;;5.33;3.47;;;14.30;99.90;;;;;;6240427;22;20442;-86
2021/08/01 23:10:53;;;;;;;7.37;3.83;;;14.40;99.90;;;;;;6266030;22;20984;-86
2021/08/01 23:13:22;;;;;;;5.90;3.60;;;14.40;99.90;;;;;;6268697;22;20389;-86
2021/08/01 23:15:51;;;;;;;4.07;3.67;;;14.40;99.90;;;;;;6241157;22;20847;-86
2021/08/01 23:18:19;;;;;;;3.97;3.67;;;14.30;99.90;;;;;;6239611;22;21034;-86
2021/08/01 23:20:47;;;;;;;3.50;3.20;;;14.40;99.90;;;;;;6239704;22;20420;-86
2021/08/01 23:23:18;;;;;;;4.30;3.90;;;14.30;99.90;;;;;;6240891;22;20886;-86
2021/08/01 23:25:56;;;;;;;3.53;3.23;;;14.30;99.90;;;;;;6267524;22;20385;-86
2021/08/01 23:28:32;;;;;;;;;;;;;;;;;;;;;
2021/08/01 23:31:00;;;;;;;4.80;3.80;;;14.40;99.90;;;;;;6265672;22;20475;-85
2021/08/01 23:33:27;;;;;;;4.43;3.20;;;14.40;99.90;;;;;;6265630;22;20392;-86
2021/08/01 23:35:55;;;;;;;4.17;3.50;;;14.40;99.90;;;;;;6240504;22;20411;-86
2021/08/01 23:38:23;;;;;;;4.60;3.50;;;14.40;99.90;;;;;;6240578;22;20906;-86
2021/08/01 23:40:54;;;;;;;7.43;3.87;;;14.50;99.90;;;;;;6239170;22;20385;-86
2021/08/01 23:43:25;;;;;;;3.43;3.13;;;14.50;99.90;;;;;;6237361;22;20396;-86
2021/08/01 23:45:51;;;;;;;4.43;4.03;;;14.40;99.90;;;;;;6239303;22;20392;-86
2021/08/01 23:48:23;;;;;;;6.13;3.73;;;14.40;99.90;;;;;;6241299;22;20444;-86
2021/08/01 23:51:12;;;;;;;4.53;3.43;;;14.40;99.90;;;;;;6267564;22;20696;-85
2021/08/01 23:53:58;;;;;;;4.83;3.83;;;14.40;99.90;;;;;;6238760;22;20457;-85
2021/08/01 23:56:39;;;;;;;4.53;3.73;;;14.40;99.90;;;;;;6239739;22;20393;-86
2021/08/01 23:59:20;;;;;;;9.50;4.20;;;14.40;99.90;;;;;;6240479;22;20403;-86
